Time;durP1;ratioP1;P1;durP2;ratioP2;P2;SDS_P1;SDS_P2;PMS_P1;PMS_P2;Temp;Humidity;BMP_temperature;BMP_pressure;BME280_temperature;BME280_humidity;BME280_pressure;Samples;Min_cycle;Max_cycle;Signal;HPM_P1;HPM_P2
2021/01/21 00:01:19;;;;;;;14.23;9.80;;;2.40;91.70;;;;;;5037816;28;20029;-69
2021/01/21 00:03:45;;;;;;;15.05;11.50;;;2.50;92.00;;;;;;5038005;28;20025;-69
2021/01/21 00:06:10;;;;;;;14.25;11.13;;;2.50;91.70;;;;;;5037797;28;20021;-69
2021/01/21 00:08:36;;;;;;;23.75;12.18;;;2.60;91.50;;;;;;5037826;28;20377;-70
2021/01/21 00:11:02;;;;;;;17.80;11.93;;;2.60;90.40;;;;;;5037750;28;20104;-69
2021/01/21 00:13:27;;;;;;;22.50;13.80;;;2.70;90.10;;;;;;5037693;28;20029;-70
2021/01/21 00:15:53;;;;;;;19.92;14.10;;;2.70;89.40;;;;;;5037877;28;20029;-70
2021/01/21 00:18:19;;;;;;;21.38;13.95;;;2.60;88.00;;;;;;5037616;28;20029;-70
2021/01/21 00:20:44;;;;;;;17.60;13.30;;;2.60;87.50;;;;;;5037445;28;20420;-69
2021/01/21 00:23:10;;;;;;;20.55;14.52;;;2.60;88.60;;;;;;5037516;28;20025;-70
2021/01/21 00:25:36;;;;;;;21.05;14.88;;;2.70;87.70;;;;;;5037729;28;20313;-70
2021/01/21 00:28:01;;;;;;;18.95;12.95;;;2.70;87.40;;;;;;5037321;28;20103;-70
2021/01/21 00:30:27;;;;;;;18.65;13.60;;;2.70;88.40;;;;;;5037620;28;20029;-67
2021/01/21 00:32:53;;;;;;;16.42;12.05;;;2.70;89.60;;;;;;5037593;28;20104;-67
2021/01/21 00:35:18;;;;;;;16.17;11.40;;;2.70;89.80;;;;;;5037390;28;20025;-67
2021/01/21 00:37:44;;;;;;;17.85;13.60;;;2.80;90.20;;;;;;5037290;28;20029;-67
2021/01/21 00:40:11;;;;;;;17.05;12.90;;;2.90;88.70;;;;;;5037117;28;20024;-67
2021/01/21 00:42:37;;;;;;;22.17;14.10;;;2.90;87.60;;;;;;5037446;28;20033;-67
2021/01/21 00:45:04;;;;;;;21.85;13.23;;;2.80;87.60;;;;;;5037102;28;20023;-67
2021/01/21 00:47:30;;;;;;;16.70;13.07;;;2.70;88.30;;;;;;5037054;28;20025;-67
2021/01/21 00:49:56;;;;;;;16.95;12.45;;;2.60;88.90;;;;;;5037038;28;20099;-67
2021/01/21 00:52:21;;;;;;;18.58;13.70;;;2.60;89.20;;;;;;5037311;28;20406;-67
2021/01/21 00:54:47;;;;;;;21.33;14.07;;;2.60;89.40;;;;;;5036700;28;20326;-67
2021/01/21 00:57:13;;;;;;;19.95;13.82;;;2.50;89.40;;;;;;5037311;28;20037;-67
2021/01/21 00:59:38;;;;;;;17.30;11.73;;;2.60;89.50;;;;;;5036854;28;20108;-67
2021/01/21 01:02:04;;;;;;;16.90;12.57;;;2.60;90.30;;;;;;5036818;28;20021;-67
2021/01/21 01:04:30;;;;;;;15.20;11.68;;;2.60;90.20;;;;;;5036739;28;20021;-67
2021/01/21 01:06:56;;;;;;;11.68;8.50;;;2.60;90.40;;;;;;5037097;28;20028;-67
2021/01/21 01:09:22;;;;;;;11.10;7.72;;;2.70;90.90;;;;;;5037012;28;20105;-67
2021/01/21 01:11:48;;;;;;;9.60;7.55;;;2.70;91.00;;;;;;5036752;28;20029;-67
2021/01/21 01:14:14;;;;;;;14.23;9.48;;;2.70;91.40;;;;;;5036772;28;20052;-67
2021/01/21 01:16:40;;;;;;;16.67;10.05;;;2.70;91.10;;;;;;5036712;28;20029;-67
2021/01/21 01:19:06;;;;;;;17.67;12.73;;;2.70;90.70;;;;;;5036923;28;20033;-67
2021/01/21 01:21:32;;;;;;;19.88;11.55;;;2.60;89.20;;;;;;5036555;28;20071;-67
2021/01/21 01:23:57;;;;;;;11.30;7.90;;;2.60;89.10;;;;;;5036619;28;20049;-67
2021/01/21 01:26:23;;;;;;;15.40;11.02;;;2.70;90.00;;;;;;5036832;28;20037;-67
2021/01/21 01:28:49;;;;;;;16.58;13.07;;;2.60;90.10;;;;;;5036752;28;20034;-67
2021/01/21 01:31:15;;;;;;;16.30;11.10;;;2.60;89.50;;;;;;5036531;28;20022;-67
2021/01/21 01:33:41;;;;;;;15.18;10.48;;;2.60;89.50;;;;;;5036842;28;20033;-67
2021/01/21 01:36:07;;;;;;;17.48;12.65;;;2.60;90.00;;;;;;5035416;28;20483;-69
2021/01/21 01:38:33;;;;;;;17.33;12.13;;;2.60;90.20;;;;;;5036445;28;20108;-69
2021/01/21 01:40:59;;;;;;;23.25;13.70;;;2.50;90.00;;;;;;5036458;28;20144;-69
2021/01/21 01:43:25;;;;;;;18.58;12.50;;;2.60;89.90;;;;;;5036627;28;20032;-69
2021/01/21 01:45:50;;;;;;;14.60;10.52;;;2.60;89.80;;;;;;5036392;28;20021;-69
2021/01/21 01:48:20;;;;;;;14.77;8.93;;;2.60;90.90;;;;;;5036432;28;20104;-69
2021/01/21 01:50:46;;;;;;;10.68;8.00;;;2.70;91.40;;;;;;5036387;28;20072;-69
2021/01/21 01:53:12;;;;;;;11.45;8.23;;;2.80;91.80;;;;;;5036569;28;20156;-70
2021/01/21 01:55:41;;;;;;;8.60;6.80;;;2.90;91.80;;;;;;5036611;28;20409;-69
2021/01/21 01:58:13;;;;;;;11.10;8.35;;;3.00;91.80;;;;;;5036326;28;20033;-69
2021/01/21 02:00:39;;;;;;;13.38;9.93;;;3.10;90.90;;;;;;5035127;28;20414;-70
2021/01/21 02:03:05;;;;;;;14.85;10.95;;;3.20;89.50;;;;;;5036243;28;20021;-70
2021/01/21 02:05:31;;;;;;;19.10;12.80;;;3.10;88.70;;;;;;5036994;28;20031;-69
2021/01/21 02:07:57;;;;;;;21.75;13.85;;;3.00;88.10;;;;;;5040065;28;20101;-70
2021/01/21 02:10:23;;;;;;;22.33;15.50;;;3.00;86.20;;;;;;5040132;28;20037;-70
2021/01/21 02:13:01;;;;;;;20.42;14.10;;;2.90;86.70;;;;;;5040517;28;20029;-69
2021/01/21 02:15:56;;;;;;;22.48;16.05;;;2.80;87.10;;;;;;5039979;28;20379;-68
2021/01/21 02:18:41;;;;;;;21.75;16.38;;;2.80;86.20;;;;;;5038912;28;20030;-70
2021/01/21 02:21:13;;;;;;;21.80;15.45;;;2.70;86.80;;;;;;5039743;28;20026;-67
2021/01/21 02:24:04;;;;;;;20.15;14.80;;;2.80;87.00;;;;;;5039796;28;20041;-67
2021/01/21 02:26:40;;;;;;;17.92;12.88;;;2.80;87.20;;;;;;5039506;28;20444;-67
2021/01/21 02:29:15;;;;;;;13.07;10.30;;;2.90;88.70;;;;;;5039841;28;20104;-67
2021/01/21 02:32:01;;;;;;;17.92;13.93;;;3.00;89.30;;;;;;5039945;28;20018;-67
2021/01/21 02:34:31;;;;;;;25.33;16.25;;;3.10;88.70;;;;;;5039763;28;20113;-67
2021/01/21 02:36:59;;;;;;;20.23;15.48;;;3.10;86.80;;;;;;5039473;28;20052;-67
2021/01/21 02:39:26;;;;;;;21.52;15.75;;;3.10;84.60;;;;;;5039513;28;20025;-67
2021/01/21 02:41:52;;;;;;;26.42;17.83;;;3.20;85.40;;;;;;5039661;28;20030;-67
2021/01/21 02:44:17;;;;;;;22.98;15.88;;;3.10;84.40;;;;;;5039374;28;20470;-69
2021/01/21 02:46:48;;;;;;;20.42;15.88;;;3.00;85.10;;;;;;5039361;28;20038;-67
2021/01/21 02:49:14;;;;;;;20.75;16.20;;;3.00;85.80;;;;;;5039553;28;20025;-67
2021/01/21 02:51:58;;;;;;;24.58;17.15;;;2.90;86.30;;;;;;5039248;28;20032;-67
2021/01/21 02:54:54;;;;;;;21.90;15.88;;;2.90;86.40;;;;;;5039102;28;20128;-67
2021/01/21 02:57:25;;;;;;;21.52;15.63;;;2.90;86.10;;;;;;5038992;28;20095;-67
2021/01/21 02:59:54;;;;;;;23.52;17.15;;;2.90;86.70;;;;;;5039009;28;20354;-67
2021/01/21 03:02:24;;;;;;;21.58;14.98;;;2.90;86.80;;;;;;5039102;28;20088;-67
2021/01/21 03:04:53;;;;;;;20.33;14.77;;;2.90;86.80;;;;;;5038945;28;20029;-67
2021/01/21 03:07:21;;;;;;;20.98;14.95;;;3.00;86.60;;;;;;5039221;28;20018;-67
2021/01/21 03:09:47;;;;;;;20.05;15.00;;;2.90;87.00;;;;;;5039130;28;20406;-67
2021/01/21 03:12:23;;;;;;;13.43;9.88;;;2.90;88.00;;;;;;5038869;28;20184;-67
2021/01/21 03:14:53;;;;;;;8.15;5.55;;;3.00;90.00;;;;;;5038787;28;20033;-67
2021/01/21 03:17:26;;;;;;;9.10;4.63;;;3.10;91.50;;;;;;5038639;28;20033;-67
2021/01/21 03:19:52;;;;;;;7.18;5.03;;;3.20;92.20;;;;;;5038643;28;20029;-67
2021/01/21 03:22:18;;;;;;;8.13;5.32;;;3.20;92.10;;;;;;5038996;28;20075;-67
2021/01/21 03:24:45;;;;;;;6.18;4.88;;;3.30;92.20;;;;;;5038787;28;20030;-67
2021/01/21 03:27:11;;;;;;;4.47;3.15;;;3.30;91.80;;;;;;5038694;28;20057;-67
2021/01/21 03:29:37;;;;;;;4.88;3.40;;;3.40;91.60;;;;;;5038508;28;20029;-67
2021/01/21 03:32:03;;;;;;;5.40;3.95;;;3.40;91.80;;;;;;5037459;28;20076;-67
2021/01/21 03:34:29;;;;;;;7.50;4.50;;;3.40;91.70;;;;;;5037376;28;20033;-67
2021/01/21 03:36:54;;;;;;;4.60;3.80;;;3.40;91.80;;;;;;5038401;28;20018;-67
2021/01/21 03:39:20;;;;;;;4.68;2.92;;;3.40;91.80;;;;;;5038417;28;20068;-67
2021/01/21 03:41:48;;;;;;;4.18;3.30;;;3.50;91.60;;;;;;5038255;28;20370;-67
2021/01/21 03:44:14;;;;;;;5.72;4.13;;;3.50;91.50;;;;;;5038179;28;20441;-67
2021/01/21 03:46:39;;;;;;;6.40;3.40;;;3.50;91.60;;;;;;5038195;28;20022;-67
2021/01/21 03:49:05;;;;;;;4.90;3.65;;;3.50;91.90;;;;;;5038120;28;20112;-67
2021/01/21 03:51:31;;;;;;;4.13;2.67;;;3.50;91.80;;;;;;5037095;28;20022;-67
2021/01/21 03:53:56;;;;;;;3.65;2.63;;;3.60;92.00;;;;;;5038114;28;20029;-67
2021/01/21 03:56:22;;;;;;;4.80;2.60;;;3.60;92.00;;;;;;5038488;28;20499;-67
2021/01/21 03:58:48;;;;;;;3.70;2.38;;;3.60;91.70;;;;;;5038295;28;20099;-67
2021/01/21 04:01:13;;;;;;;3.63;2.38;;;3.60;91.80;;;;;;5037886;28;20100;-67
2021/01/21 04:03:39;;;;;;;4.03;2.83;;;3.60;91.90;;;;;;5038195;28;20095;-67
2021/01/21 04:06:05;;;;;;;6.55;3.60;;;3.70;91.80;;;;;;5037819;28;20047;-67
2021/01/21 04:08:31;;;;;;;5.88;3.22;;;3.70;91.50;;;;;;5037870;28;20318;-67
2021/01/21 04:10:56;;;;;;;5.43;2.88;;;3.70;91.40;;;;;;5037787;28;20056;-67
2021/01/21 04:13:22;;;;;;;4.68;2.78;;;3.70;91.40;;;;;;5037742;28;20057;-67
2021/01/21 04:15:48;;;;;;;5.80;3.05;;;3.80;91.60;;;;;;5037672;28;20032;-67
2021/01/21 04:18:14;;;;;;;3.75;2.85;;;3.80;91.50;;;;;;5037672;28;20333;-67
2021/01/21 04:20:40;;;;;;;4.32;3.10;;;3.80;91.70;;;;;;5037462;28;20029;-67
2021/01/21 04:23:06;;;;;;;4.50;2.90;;;3.80;91.70;;;;;;5037645;28;20079;-67
2021/01/21 04:25:32;;;;;;;5.03;3.60;;;3.80;91.60;;;;;;5037879;28;20032;-69
2021/01/21 04:27:58;;;;;;;4.43;3.72;;;3.70;91.80;;;;;;5036762;28;20046;-67
2021/01/21 04:30:24;;;;;;;5.25;3.65;;;3.70;91.60;;;;;;5037605;28;20071;-67
2021/01/21 04:32:50;;;;;;;4.78;3.78;;;3.70;92.00;;;;;;5037399;28;20083;-67
2021/01/21 04:35:16;;;;;;;4.63;3.75;;;3.70;92.40;;;;;;5037169;28;20031;-67
2021/01/21 04:37:42;;;;;;;4.43;3.10;;;3.70;92.40;;;;;;5037271;28;20029;-67
2021/01/21 04:40:08;;;;;;;6.75;3.38;;;3.80;91.70;;;;;;5037192;28;20021;-67
2021/01/21 04:42:35;;;;;;;11.80;8.60;;;3.70;91.50;;;;;;5037255;28;20029;-67
2021/01/21 04:45:03;;;;;;;14.68;9.68;;;3.70;89.20;;;;;;5037092;28;20018;-67
2021/01/21 04:47:29;;;;;;;22.10;12.98;;;3.50;87.50;;;;;;5037272;28;20100;-67
2021/01/21 04:49:56;;;;;;;14.32;10.38;;;3.40;86.40;;;;;;5036013;28;20355;-67
2021/01/21 04:52:24;;;;;;;14.77;8.43;;;3.20;87.50;;;;;;5037295;28;20318;-67
2021/01/21 04:55:03;;;;;;;13.65;9.65;;;3.10;88.40;;;;;;5037021;28;20075;-67
2021/01/21 04:57:42;;;;;;;11.02;8.32;;;3.00;88.90;;;;;;5037033;28;20059;-69
2021/01/21 05:00:09;;;;;;;4.85;3.58;;;2.90;89.20;;;;;;5036874;28;20025;-70
2021/01/21 05:02:38;;;;;;;3.67;2.78;;;2.80;90.40;;;;;;5036843;28;20037;-70
2021/01/21 05:05:10;;;;;;;4.03;2.45;;;2.70;92.30;;;;;;5037064;28;20021;-69
2021/01/21 05:07:38;;;;;;;3.17;2.50;;;2.70;93.20;;;;;;5037231;28;20321;-70
2021/01/21 05:10:06;;;;;;;3.63;2.55;;;2.70;93.90;;;;;;5037050;28;20103;-67
2021/01/21 05:12:31;;;;;;;2.33;1.80;;;2.80;94.20;;;;;;5036824;28;20092;-67
2021/01/21 05:14:58;;;;;;;2.85;1.58;;;2.80;94.50;;;;;;5036663;28;20029;-67
2021/01/21 05:17:25;;;;;;;3.30;1.67;;;2.80;94.00;;;;;;5035708;28;20413;-67
2021/01/21 05:19:52;;;;;;;2.53;1.55;;;2.90;93.70;;;;;;5036617;28;20022;-67
2021/01/21 05:22:19;;;;;;;1.92;1.45;;;2.90;93.70;;;;;;5035643;28;20037;-67
2021/01/21 05:24:46;;;;;;;3.05;1.70;;;2.90;93.90;;;;;;5036641;28;20022;-67
2021/01/21 05:27:16;;;;;;;3.17;1.45;;;2.90;93.90;;;;;;5036419;28;20108;-67
2021/01/21 05:29:46;;;;;;;3.17;1.42;;;2.80;93.90;;;;;;5036653;28;20317;-67
2021/01/21 05:32:17;;;;;;;3.03;1.90;;;2.80;94.00;;;;;;5036717;28;20029;-67
2021/01/21 05:34:45;;;;;;;3.00;1.90;;;2.70;94.10;;;;;;5035447;28;20414;-67
2021/01/21 05:37:13;;;;;;;4.97;2.00;;;2.70;94.50;;;;;;5035520;28;20029;-67
2021/01/21 05:39:40;;;;;;;3.28;2.17;;;2.80;95.20;;;;;;5037497;28;20026;-67
2021/01/21 05:42:06;;;;;;;5.47;2.00;;;2.80;95.60;;;;;;5040481;28;20021;-67
2021/01/21 05:44:34;;;;;;;2.95;1.80;;;3.00;95.30;;;;;;5040696;28;20018;-67
2021/01/21 05:47:04;;;;;;;4.65;2.10;;;3.20;95.20;;;;;;5040691;28;20310;-67
2021/01/21 05:49:30;;;;;;;3.17;1.67;;;3.30;94.80;;;;;;5039299;28;20025;-67
2021/01/21 05:51:58;;;;;;;1.90;1.30;;;3.50;94.00;;;;;;5039306;28;20410;-67
2021/01/21 05:54:27;;;;;;;3.20;1.70;;;3.60;93.70;;;;;;5040395;28;20361;-67
2021/01/21 05:56:55;;;;;;;6.15;1.80;;;3.70;93.60;;;;;;5040280;28;20104;-67
2021/01/21 05:59:23;;;;;;;7.82;6.47;;;3.80;93.10;;;;;;5040262;28;20075;-67
2021/01/21 06:01:49;;;;;;;8.15;4.80;;;3.90;93.10;;;;;;5040363;28;20048;-68
2021/01/21 06:04:16;;;;;;;14.43;9.77;;;4.00;92.80;;;;;;5040188;28;20022;-67
2021/01/21 06:06:43;;;;;;;11.43;9.43;;;4.10;92.70;;;;;;5040155;28;20026;-67
2021/01/21 06:09:15;;;;;;;9.25;6.97;;;4.20;92.20;;;;;;5040026;28;20021;-67
2021/01/21 06:11:43;;;;;;;15.80;9.95;;;4.20;92.60;;;;;;5040115;28;20025;-67
2021/01/21 06:14:10;;;;;;;13.45;8.85;;;4.20;87.90;;;;;;5040216;28;20029;-67
2021/01/21 06:16:40;;;;;;;11.35;6.28;;;4.00;87.20;;;;;;5039950;28;20025;-67
2021/01/21 06:19:06;;;;;;;10.82;8.23;;;3.90;88.80;;;;;;5040136;28;20356;-67
2021/01/21 06:21:36;;;;;;;9.55;7.30;;;3.80;88.50;;;;;;5040081;28;20356;-67
2021/01/21 06:24:04;;;;;;;9.23;5.80;;;3.80;89.40;;;;;;5040081;28;20017;-67
2021/01/21 06:26:51;;;;;;;6.82;4.75;;;3.80;90.00;;;;;;5039500;28;20029;-67
2021/01/21 06:29:18;;;;;;;5.68;3.65;;;3.80;90.50;;;;;;5039730;28;20025;-67
2021/01/21 06:31:44;;;;;;;5.32;3.15;;;4.00;92.20;;;;;;5039687;28;20033;-67
2021/01/21 06:34:17;;;;;;;6.13;3.20;;;4.20;91.80;;;;;;5039586;28;20032;-69
2021/01/21 06:36:50;;;;;;;5.40;3.45;;;4.20;91.00;;;;;;5039612;28;20025;-67
2021/01/21 06:39:25;;;;;;;4.75;2.70;;;4.30;90.70;;;;;;5039534;28;20044;-67
2021/01/21 06:41:55;;;;;;;5.67;2.07;;;4.30;91.20;;;;;;5039727;28;20037;-67
2021/01/21 06:44:21;;;;;;;4.55;3.10;;;4.20;91.80;;;;;;5040120;28;20256;-67
2021/01/21 06:46:48;;;;;;;6.18;3.90;;;4.20;91.80;;;;;;5039385;28;20029;-67
2021/01/21 06:49:16;;;;;;;7.30;2.85;;;4.20;90.70;;;;;;5039552;28;20029;-67
2021/01/21 06:51:47;;;;;;;4.55;2.10;;;4.10;91.20;;;;;;5038971;28;20330;-67
2021/01/21 06:54:15;;;;;;;4.07;1.60;;;4.20;91.30;;;;;;5039240;28;20029;-67
2021/01/21 06:56:40;;;;;;;3.45;1.70;;;4.30;90.90;;;;;;5039216;28;20032;-67
2021/01/21 06:59:07;;;;;;;4.78;2.83;;;4.40;90.70;;;;;;5038080;28;20037;-67
2021/01/21 07:01:32;;;;;;;6.63;3.10;;;4.60;90.10;;;;;;5038995;28;20033;-67
2021/01/21 07:04:04;;;;;;;4.80;2.75;;;4.70;89.40;;;;;;5039084;28;20025;-67
2021/01/21 07:06:57;;;;;;;12.77;9.43;;;4.70;89.40;;;;;;5039073;28;20028;-67
2021/01/21 07:09:26;;;;;;;21.77;13.75;;;4.70;87.00;;;;;;5037954;28;20037;-67
2021/01/21 07:11:57;;;;;;;20.98;15.35;;;4.50;83.40;;;;;;5038953;28;20090;-67
2021/01/21 07:14:26;;;;;;;20.42;13.77;;;4.30;82.60;;;;;;5038978;28;20044;-67
2021/01/21 07:17:04;;;;;;;16.05;12.13;;;4.00;85.30;;;;;;5039054;28;20036;-67
2021/01/21 07:19:42;;;;;;;19.55;13.15;;;3.80;85.80;;;;;;5038788;28;20040;-67
2021/01/21 07:22:12;;;;;;;17.17;12.25;;;3.50;86.20;;;;;;5038930;28;20021;-70
2021/01/21 07:25:00;;;;;;;15.68;10.77;;;3.40;87.60;;;;;;5037519;28;20430;-67
2021/01/21 07:27:31;;;;;;;15.43;10.95;;;3.40;88.90;;;;;;5038341;28;20041;-67
2021/01/21 07:30:17;;;;;;;13.35;10.63;;;3.50;89.10;;;;;;5037597;28;20033;-67
2021/01/21 07:32:44;;;;;;;12.82;6.68;;;3.50;90.00;;;;;;5038541;28;20021;-67
2021/01/21 07:35:31;;;;;;;7.35;5.28;;;3.60;91.30;;;;;;5037644;28;20372;-67
2021/01/21 07:37:57;;;;;;;6.45;3.25;;;3.70;91.50;;;;;;5038633;28;20295;-67
2021/01/21 07:40:44;;;;;;;7.40;3.05;;;3.90;92.20;;;;;;5038340;28;20091;-69
2021/01/21 07:43:10;;;;;;;4.93;3.03;;;4.00;91.90;;;;;;5038306;28;20022;-69
2021/01/21 07:45:36;;;;;;;7.53;3.17;;;4.20;91.70;;;;;;5038545;28;20156;-67
2021/01/21 07:48:24;;;;;;;10.05;5.70;;;4.30;91.00;;;;;;5038298;28;20097;-67
2021/01/21 07:50:52;;;;;;;5.97;4.35;;;4.30;89.60;;;;;;5038256;28;20057;-67
2021/01/21 07:53:27;;;;;;;5.18;3.72;;;4.40;89.40;;;;;;5038161;28;20032;-67
2021/01/21 07:55:54;;;;;;;4.43;2.35;;;4.40;89.50;;;;;;5037455;28;20318;-69
2021/01/21 07:58:21;;;;;;;5.45;2.60;;;4.50;90.50;;;;;;5037029;28;20030;-70
2021/01/21 08:00:50;;;;;;;8.13;3.92;;;4.60;90.50;;;;;;5038015;28;20030;-70
2021/01/21 08:03:25;;;;;;;6.68;4.22;;;4.60;90.20;;;;;;5036998;28;20049;-70
2021/01/21 08:06:02;;;;;;;5.43;3.47;;;4.60;89.60;;;;;;5037994;28;20017;-70
2021/01/21 08:08:28;;;;;;;5.25;2.85;;;4.60;90.10;;;;;;5038010;28;20052;-70
2021/01/21 08:11:04;;;;;;;5.75;4.65;;;4.70;90.40;;;;;;5037723;28;20037;-70
2021/01/21 08:13:31;;;;;;;7.20;3.92;;;4.70;90.20;;;;;;5038276;28;20025;-70
2021/01/21 08:15:56;;;;;;;7.22;4.57;;;4.70;89.40;;;;;;5037932;28;20040;-70
2021/01/21 08:18:23;;;;;;;5.97;4.45;;;4.80;88.00;;;;;;5037684;28;20021;-70
2021/01/21 08:20:49;;;;;;;6.88;4.50;;;4.70;87.80;;;;;;5037574;28;20366;-70
2021/01/21 08:23:16;;;;;;;5.35;3.97;;;4.70;88.20;;;;;;5037555;28;20056;-67
2021/01/21 08:25:47;;;;;;;4.68;3.22;;;4.80;88.80;;;;;;5037415;28;20028;-68
2021/01/21 08:28:18;;;;;;;5.78;2.95;;;5.00;89.10;;;;;;5037422;28;20341;-68
2021/01/21 08:30:44;;;;;;;5.63;2.22;;;5.20;89.10;;;;;;5037476;28;20053;-68
2021/01/21 08:33:17;;;;;;;6.38;2.17;;;5.40;87.50;;;;;;5037681;28;20370;-68
2021/01/21 08:35:57;;;;;;;4.20;1.90;;;5.60;86.90;;;;;;5037396;28;20079;-68
2021/01/21 08:38:30;;;;;;;4.97;3.25;;;5.80;86.40;;;;;;5037370;28;20087;-68
2021/01/21 08:40:57;;;;;;;5.15;3.38;;;6.00;85.70;;;;;;5036162;28;20306;-67
2021/01/21 08:43:24;;;;;;;3.80;2.70;;;6.10;84.00;;;;;;5037459;28;20368;-68
2021/01/21 08:45:54;;;;;;;4.25;2.78;;;6.00;83.40;;;;;;5037274;28;20025;-68
2021/01/21 08:48:31;;;;;;;5.22;4.10;;;6.00;84.10;;;;;;5037179;28;20017;-68
2021/01/21 08:50:58;;;;;;;11.48;6.93;;;6.00;85.80;;;;;;5037081;28;20156;-68
2021/01/21 08:53:29;;;;;;;12.07;8.98;;;5.90;84.90;;;;;;5037177;28;20064;-68
2021/01/21 08:55:56;;;;;;;12.13;8.18;;;5.80;83.90;;;;;;5037371;28;20037;-68
2021/01/21 08:58:30;;;;;;;13.55;10.18;;;5.60;82.40;;;;;;5035925;28;20040;-68
2021/01/21 09:01:11;;;;;;;11.75;9.90;;;5.50;82.50;;;;;;5035795;28;20030;-68
2021/01/21 09:03:45;;;;;;;12.77;8.60;;;5.30;83.40;;;;;;5037293;28;20021;-68
2021/01/21 09:06:12;;;;;;;17.85;13.25;;;5.10;84.00;;;;;;5036915;28;20475;-69
2021/01/21 09:08:56;;;;;;;14.65;11.10;;;4.90;84.30;;;;;;5036833;28;20025;-68
2021/01/21 09:11:28;;;;;;;13.55;9.98;;;4.70;84.70;;;;;;5036809;28;20026;-69
2021/01/21 09:13:55;;;;;;;13.57;9.52;;;4.60;85.10;;;;;;5036790;28;20037;-68
2021/01/21 09:16:39;;;;;;;10.40;8.07;;;4.50;85.70;;;;;;5036912;28;20072;-68
2021/01/21 09:19:05;;;;;;;12.30;7.43;;;4.50;86.00;;;;;;5036680;28;20057;-68
2021/01/21 09:21:30;;;;;;;12.00;8.50;;;4.60;86.70;;;;;;5036682;28;20076;-68
2021/01/21 09:24:10;;;;;;;13.00;8.80;;;4.70;86.40;;;;;;5036653;28;20064;-69
2021/01/21 09:26:36;;;;;;;15.93;12.98;;;4.70;86.00;;;;;;5036458;28;20361;-68
2021/01/21 09:29:03;;;;;;;17.23;12.48;;;4.70;85.90;;;;;;5036618;28;20067;-68
2021/01/21 09:31:30;;;;;;;13.95;9.40;;;4.70;85.60;;;;;;5036591;28;20033;-67
2021/01/21 09:33:57;;;;;;;13.55;10.25;;;4.60;86.40;;;;;;5036879;28;20406;-68
2021/01/21 09:36:30;;;;;;;17.92;9.93;;;4.60;86.90;;;;;;5036501;28;20026;-68
2021/01/21 09:38:57;;;;;;;10.50;7.85;;;4.70;87.10;;;;;;5036525;28;20029;-69
2021/01/21 09:41:24;;;;;;;12.75;8.27;;;4.70;87.80;;;;;;5036430;28;20029;-69
2021/01/21 09:43:50;;;;;;;12.43;9.43;;;4.70;88.80;;;;;;5036446;28;20026;-68
2021/01/21 09:46:16;;;;;;;10.70;7.85;;;4.70;89.30;;;;;;5036450;28;20022;-68
2021/01/21 09:48:42;;;;;;;11.50;7.95;;;4.70;88.70;;;;;;5036440;28;20032;-68
2021/01/21 09:51:08;;;;;;;12.45;8.00;;;4.80;88.40;;;;;;5036385;28;20044;-68
2021/01/21 09:53:33;;;;;;;10.32;7.35;;;4.80;88.20;;;;;;5035322;28;20038;-68
2021/01/21 09:55:59;;;;;;;8.95;5.88;;;4.80;88.40;;;;;;5036303;28;20040;-68
2021/01/21 09:58:25;;;;;;;7.68;5.43;;;4.90;89.20;;;;;;5036332;28;20417;-68
2021/01/21 10:00:52;;;;;;;8.07;4.93;;;5.00;89.20;;;;;;5035242;28;20026;-68
2021/01/21 10:03:18;;;;;;;6.05;4.13;;;5.10;89.60;;;;;;5035261;28;20026;-68
2021/01/21 10:05:46;;;;;;;5.68;4.38;;;5.20;89.20;;;;;;5036314;28;20060;-67
2021/01/21 10:08:12;;;;;;;7.40;5.18;;;5.40;89.70;;;;;;5035630;28;20021;-68
2021/01/21 10:10:38;;;;;;;5.03;2.67;;;5.50;90.10;;;;;;5040439;28;20378;-68
2021/01/21 10:13:04;;;;;;;6.50;3.45;;;5.60;88.40;;;;;;5051845;28;20111;-68
2021/01/21 10:15:30;;;;;;;6.55;3.40;;;5.70;87.70;;;;;;5056102;28;20482;-68
2021/01/21 10:17:56;;;;;;;7.68;4.20;;;5.80;87.60;;;;;;5055011;28;20045;-68
2021/01/21 10:20:21;;;;;;;5.80;3.00;;;5.90;87.80;;;;;;5055990;28;20369;-68
2021/01/21 10:22:47;;;;;;;8.75;3.47;;;6.00;86.60;;;;;;5056289;28;20295;-68
2021/01/21 10:25:14;;;;;;;4.82;2.90;;;6.10;85.70;;;;;;5056185;28;20432;-68
2021/01/21 10:27:39;;;;;;;7.80;3.42;;;6.30;84.90;;;;;;5058174;28;20486;-68
2021/01/21 10:30:06;;;;;;;6.55;2.72;;;6.40;84.30;;;;;;5059954;28;20099;-68
2021/01/21 10:32:33;;;;;;;3.47;2.67;;;6.50;83.80;;;;;;5059696;28;20097;-68
2021/01/21 10:34:59;;;;;;;13.65;8.13;;;6.60;83.80;;;;;;5059661;28;20522;-69
2021/01/21 10:37:25;;;;;;;12.30;7.53;;;6.60;83.00;;;;;;5059554;28;20032;-68
2021/01/21 10:39:52;;;;;;;10.73;8.05;;;6.70;81.70;;;;;;5059662;28;20021;-68
2021/01/21 10:42:18;;;;;;;11.57;7.60;;;6.70;81.60;;;;;;5059386;28;20037;-68
2021/01/21 10:44:44;;;;;;;11.48;8.88;;;6.60;82.70;;;;;;5059264;28;20420;-68
2021/01/21 10:47:10;;;;;;;11.10;9.65;;;6.60;82.90;;;;;;5059589;28;20025;-69
2021/01/21 10:49:36;;;;;;;12.98;8.55;;;6.50;81.30;;;;;;5059290;28;20120;-70
2021/01/21 10:52:02;;;;;;;10.88;8.07;;;6.40;81.30;;;;;;5059514;28;20029;-68
2021/01/21 10:54:27;;;;;;;10.82;7.97;;;6.30;81.30;;;;;;5059221;28;20032;-69
2021/01/21 10:56:56;;;;;;;11.00;7.78;;;6.20;82.00;;;;;;5059134;28;20044;-70
2021/01/21 10:59:22;;;;;;;10.73;8.02;;;6.10;83.60;;;;;;5059130;28;20029;-69
2021/01/21 11:01:48;;;;;;;8.85;7.75;;;6.10;83.60;;;;;;5059188;28;20032;-69
2021/01/21 11:04:13;;;;;;;11.48;7.78;;;6.00;83.50;;;;;;5058950;28;20036;-70
2021/01/21 11:06:39;;;;;;;10.63;7.30;;;6.10;83.60;;;;;;5059063;28;20082;-68
2021/01/21 11:09:05;;;;;;;10.90;7.05;;;6.10;84.20;;;;;;5058919;28;20107;-68
2021/01/21 11:11:31;;;;;;;10.52;8.35;;;6.10;84.60;;;;;;5058890;28;20337;-69
2021/01/21 11:13:57;;;;;;;12.20;9.07;;;6.10;84.50;;;;;;5059035;28;20021;-68
2021/01/21 11:16:23;;;;;;;13.10;9.25;;;6.20;83.10;;;;;;5058740;28;20326;-68
2021/01/21 11:18:48;;;;;;;10.75;8.32;;;6.10;83.50;;;;;;5058762;28;20052;-68
2021/01/21 11:21:15;;;;;;;11.63;8.35;;;6.10;83.30;;;;;;5057571;28;20025;-68
2021/01/21 11:23:41;;;;;;;12.52;8.80;;;6.10;82.60;;;;;;5058892;28;20424;-68
2021/01/21 11:26:06;;;;;;;12.75;8.80;;;6.10;82.90;;;;;;5058493;28;20053;-68
2021/01/21 11:28:32;;;;;;;13.60;9.00;;;6.20;83.00;;;;;;5058388;28;20049;-69
2021/01/21 11:30:58;;;;;;;11.10;9.65;;;6.20;82.00;;;;;;5058551;28;20503;-70
2021/01/21 11:33:24;;;;;;;13.57;10.02;;;6.20;81.70;;;;;;5058427;28;20056;-68
2021/01/21 11:35:50;;;;;;;12.45;9.10;;;6.10;82.30;;;;;;5058346;28;20104;-68
2021/01/21 11:38:16;;;;;;;13.18;9.68;;;6.00;82.40;;;;;;5058337;28;20025;-69
2021/01/21 11:40:42;;;;;;;13.60;10.60;;;6.00;82.70;;;;;;5058478;28;20040;-68
2021/01/21 11:43:08;;;;;;;17.55;12.35;;;6.10;83.40;;;;;;5058587;28;20070;-68
2021/01/21 11:45:35;;;;;;;22.88;14.85;;;6.00;81.50;;;;;;5057459;28;20363;-68
2021/01/21 11:48:00;;;;;;;26.50;19.17;;;6.00;82.70;;;;;;5058264;28;20021;-68
2021/01/21 11:50:26;;;;;;;24.35;18.02;;;5.90;82.90;;;;;;5058387;28;20025;-68
2021/01/21 11:52:52;;;;;;;24.50;17.48;;;5.90;83.70;;;;;;5058157;28;20056;-68
2021/01/21 11:55:17;;;;;;;16.65;11.30;;;5.90;84.70;;;;;;5057083;28;20032;-68
2021/01/21 11:57:43;;;;;;;15.55;10.90;;;6.00;84.70;;;;;;5058079;28;20464;-68
2021/01/21 12:00:11;;;;;;;13.50;8.65;;;6.00;85.40;;;;;;5057963;28;20033;-68
2021/01/21 12:02:37;;;;;;;11.25;7.25;;;6.10;84.30;;;;;;5057985;28;20044;-68
2021/01/21 12:05:05;;;;;;;8.10;4.60;;;6.20;83.60;;;;;;5057784;28;20405;-68
2021/01/21 12:07:30;;;;;;;11.18;6.93;;;6.30;83.00;;;;;;5058359;28;20028;-68
2021/01/21 12:09:56;;;;;;;12.80;9.57;;;6.30;83.00;;;;;;5058132;28;20021;-68
2021/01/21 12:12:22;;;;;;;11.00;8.82;;;6.30;82.00;;;;;;5057727;28;20025;-68
2021/01/21 12:14:49;;;;;;;11.60;8.52;;;6.30;82.00;;;;;;5056569;28;20104;-68
2021/01/21 12:17:15;;;;;;;11.55;8.80;;;6.30;82.30;;;;;;5057838;28;20051;-68
2021/01/21 12:19:41;;;;;;;12.48;7.68;;;6.30;82.90;;;;;;5057582;28;20025;-68
2021/01/21 12:22:06;;;;;;;9.52;7.32;;;6.20;82.90;;;;;;5057451;28;20020;-68
2021/01/21 12:24:33;;;;;;;13.10;7.85;;;6.20;83.30;;;;;;5057436;28;20029;-68
2021/01/21 12:26:59;;;;;;;8.93;6.95;;;6.20;83.50;;;;;;5057302;28;20376;-68
2021/01/21 12:29:24;;;;;;;11.70;7.28;;;6.20;83.80;;;;;;5057416;28;20025;-68
2021/01/21 12:31:51;;;;;;;11.27;8.82;;;6.20;85.20;;;;;;5057378;28;20021;-68
2021/01/21 12:34:16;;;;;;;14.10;10.05;;;6.20;84.60;;;;;;5057571;28;20105;-68
2021/01/21 12:36:42;;;;;;;8.18;6.20;;;6.20;83.80;;;;;;5057332;28;20048;-68
2021/01/21 12:39:08;;;;;;;9.75;8.13;;;6.30;83.10;;;;;;5057316;28;20028;-68
2021/01/21 12:41:34;;;;;;;13.77;8.60;;;6.30;83.60;;;;;;5057506;28;20051;-68
2021/01/21 12:43:59;;;;;;;11.85;7.30;;;6.30;84.10;;;;;;5057154;28;20029;-68
2021/01/21 12:46:28;;;;;;;12.43;6.70;;;6.20;83.80;;;;;;5056024;28;20025;-68
2021/01/21 12:48:54;;;;;;;8.95;5.00;;;6.20;83.90;;;;;;5055707;28;20317;-68
2021/01/21 12:51:20;;;;;;;9.07;5.20;;;6.20;83.60;;;;;;5056951;28;20125;-68
2021/01/21 12:53:46;;;;;;;9.13;5.05;;;6.30;83.10;;;;;;5056991;28;20063;-68